Time;durP1;ratioP1;P1;durP2;ratioP2;P2;SDS_P1;SDS_P2;PMS_P1;PMS_P2;Temp;Humidity;BMP_temperature;BMP_pressure;BME280_temperature;BME280_humidity;BME280_pressure;Samples;Min_cycle;Max_cycle;Signal;HPM_P1;HPM_P2
2021/12/31 00:01:05;;;;;;;26.23;21.25;;;6.40;99.90;;;;;;5033142;28;20072;-79
2021/12/31 00:03:40;;;;;;;31.63;20.85;;;6.30;99.90;;;;;;5030593;28;20075;-79
2021/12/31 00:06:09;;;;;;;30.38;20.73;;;6.30;99.90;;;;;;5029834;28;20033;-79
2021/12/31 00:08:35;;;;;;;24.42;19.27;;;6.20;99.90;;;;;;5030064;28;20036;-79
2021/12/31 00:17:44;;;;;;;37.08;27.70;;;6.20;99.90;;;;;;5024113;28;20025;-79
2021/12/31 00:27:36;;;;;;;34.72;22.15;;;6.10;99.90;;;;;;4930085;29;20499;-80
2021/12/31 00:30:11;;;;;;;26.48;21.10;;;6.00;99.90;;;;;;4943506;28;20043;-80
2021/12/31 00:46:47;;;;;;;72.57;43.03;;;6.10;99.90;;;;;;4921354;29;20120;-80
2021/12/31 00:49:28;;;;;;;220.68;70.40;;;6.10;99.90;;;;;;4867943;29;20049;-79
2021/12/31 00:52:28;;;;;;;542.47;96.07;;;6.20;99.90;;;;;;4876012;29;20093;-79
2021/12/31 00:55:20;;;;;;;498.40;104.82;;;6.40;99.90;;;;;;4875952;29;20073;-79
2021/12/31 01:05:22;;;;;;;127.03;62.67;;;6.60;99.90;;;;;;4862931;29;20057;-79
2021/12/31 01:36:34;;;;;;;70.30;33.00;;;7.30;99.90;;;;;;4687765;30;20069;-80
2021/12/31 01:39:58;;;;;;;80.32;36.05;;;7.30;99.90;;;;;;4663763;30;20411;-80
2021/12/31 01:46:45;;;;;;;;;;;;;;;;;;;;;
2021/12/31 01:50:15;;;;;;;;;;;;;;;;;;;;;
2021/12/31 01:53:13;;;;;;;121.25;47.30;;;7.10;99.90;;;;;;4662085;30;20085;-80
2021/12/31 02:19:36;;;;;;;206.73;47.90;;;7.30;99.90;;;;;;4788014;29;20030;-80
2021/12/31 02:22:28;;;;;;;167.73;46.20;;;7.30;99.90;;;;;;4793524;29;20169;-79
2021/12/31 02:25:30;;;;;;;;;;;7.30;99.90;;;;;;4807818;29;20034;-79
2021/12/31 02:28:27;;;;;;;98.88;45.38;;;7.30;99.90;;;;;;4844651;29;19911;-79
2021/12/31 03:09:45;;;;;;;;;;;;;;;;;;;;;
2021/12/31 03:29:49;;;;;;;;;;;;;;;;;;;;;
2021/12/31 03:39:12;;;;;;;105.57;36.33;;;7.10;99.90;;;;;;4970331;28;20780;-82
2021/12/31 03:42:15;;;;;;;156.85;33.85;;;7.10;99.90;;;;;;5010106;28;20050;-82
2021/12/31 03:47:57;;;;;;;105.78;34.90;;;7.00;99.90;;;;;;4972690;28;20027;-81
2021/12/31 04:39:34;;;;;;;78.93;35.60;;;6.90;99.90;;;;;;4646142;30;20137;-82
2021/12/31 04:52:54;;;;;;;130.70;32.50;;;6.80;99.90;;;;;;4703091;30;20098;-81
2021/12/31 04:59:21;;;;;;;74.10;32.58;;;6.70;99.90;;;;;;4820922;29;20441;-81
2021/12/31 05:02:42;;;;;;;67.63;30.83;;;6.80;99.90;;;;;;4822505;29;20045;-81
2021/12/31 05:06:15;;;;;;;;;;;;;;;;;;;;;
2021/12/31 05:19:26;;;;;;;47.05;30.90;;;6.60;99.90;;;;;;4823130;29;20049;-82
2021/12/31 05:22:35;;;;;;;78.63;28.85;;;6.60;99.90;;;;;;4838298;29;20114;-81
2021/12/31 05:29:28;;;;;;;110.88;33.50;;;6.40;99.90;;;;;;4811262;29;20442;-82
2021/12/31 05:32:01;;;;;;;244.02;39.60;;;6.30;99.90;;;;;;4930302;28;20030;-82
2021/12/31 05:34:38;;;;;;;256.80;36.55;;;6.30;99.90;;;;;;4973862;28;20421;-82
2021/12/31 05:40:17;;;;;;;136.80;37.15;;;5.90;99.90;;;;;;4950861;28;20039;-81
2021/12/31 05:44:02;;;;;;;109.18;35.53;;;5.90;99.90;;;;;;5021147;28;20038;-82
2021/12/31 05:46:35;;;;;;;99.60;36.28;;;6.00;99.90;;;;;;4976428;28;20118;-81
2021/12/31 05:50:18;;;;;;;;;;;;;;;;;;;;;
2021/12/31 05:55:49;;;;;;;104.85;38.60;;;6.10;99.90;;;;;;4899991;29;20513;-81
2021/12/31 06:01:56;;;;;;;71.55;37.00;;;6.30;99.90;;;;;;4809587;29;20165;-82
2021/12/31 06:04:26;;;;;;;148.65;38.47;;;6.30;99.90;;;;;;4815189;29;20044;-81
2021/12/31 06:07:43;;;;;;;70.18;37.63;;;6.30;99.90;;;;;;4896131;29;20044;-81
2021/12/31 06:10:31;;;;;;;206.98;36.15;;;6.30;99.90;;;;;;4898082;29;20135;-81
2021/12/31 06:13:20;;;;;;;152.38;37.65;;;6.40;99.90;;;;;;4959015;28;20043;-81
2021/12/31 06:15:57;;;;;;;89.18;34.72;;;6.40;99.90;;;;;;5008793;28;20055;-82
2021/12/31 06:18:29;;;;;;;110.85;36.45;;;6.40;99.90;;;;;;5029863;28;20029;-82
2021/12/31 06:21:22;;;;;;;74.88;33.67;;;6.50;99.90;;;;;;5040822;28;20509;-82
2021/12/31 06:23:53;;;;;;;104.25;34.78;;;6.50;99.90;;;;;;5013292;28;20057;-81
2021/12/31 06:26:31;;;;;;;79.57;32.95;;;6.50;99.90;;;;;;5036389;28;20025;-82
2021/12/31 06:29:37;;;;;;;172.30;31.70;;;6.50;99.90;;;;;;5031749;28;20669;-81
2021/12/31 06:32:43;;;;;;;83.72;28.52;;;6.50;99.90;;;;;;5031795;28;20515;-81
2021/12/31 06:36:21;;;;;;;69.28;28.58;;;6.50;99.90;;;;;;5038058;28;20041;-80
2021/12/31 06:39:12;;;;;;;58.90;26.75;;;6.40;99.90;;;;;;4925037;29;20032;-81
2021/12/31 06:42:21;;;;;;;82.93;27.77;;;6.40;99.90;;;;;;4883014;29;20041;-82
2021/12/31 06:45:24;;;;;;;83.32;27.17;;;6.50;99.90;;;;;;4862304;29;20097;-79
2021/12/31 06:48:49;;;;;;;;;;;;;;;;;;;;;
2021/12/31 06:51:45;;;;;;;75.80;28.92;;;6.20;99.90;;;;;;4873026;29;20048;-81
2021/12/31 06:54:36;;;;;;;90.97;30.15;;;6.20;99.90;;;;;;4866416;29;20077;-82
2021/12/31 06:57:15;;;;;;;123.50;39.20;;;6.30;99.90;;;;;;4954788;28;20497;-81
2021/12/31 06:59:46;;;;;;;98.78;36.47;;;6.30;99.90;;;;;;4956005;28;20505;-81
2021/12/31 07:02:30;;;;;;;71.47;28.25;;;6.30;99.90;;;;;;4949649;28;20126;-80
2021/12/31 07:04:56;;;;;;;78.03;26.55;;;6.30;99.90;;;;;;4995409;28;20036;-81
2021/12/31 07:07:32;;;;;;;62.95;24.38;;;6.30;99.90;;;;;;5011509;28;20033;-81
2021/12/31 07:10:01;;;;;;;87.03;27.15;;;6.40;99.90;;;;;;5016874;28;20037;-81
2021/12/31 07:12:35;;;;;;;96.32;28.88;;;6.30;99.90;;;;;;4996902;28;20030;-81
2021/12/31 07:15:30;;;;;;;;;;;;;;;;;;;;;
2021/12/31 07:18:41;;;;;;;72.60;26.38;;;6.30;99.90;;;;;;5018374;28;20029;-82
2021/12/31 07:21:07;;;;;;;50.10;25.90;;;6.40;99.90;;;;;;5021595;28;20073;-82
2021/12/31 07:23:39;;;;;;;68.25;27.00;;;6.40;99.90;;;;;;5011510;28;20385;-82
2021/12/31 07:26:06;;;;;;;89.97;26.77;;;6.50;99.90;;;;;;5018767;28;20404;-82
2021/12/31 07:28:32;;;;;;;74.28;28.25;;;6.50;99.90;;;;;;4999797;28;20026;-82
2021/12/31 07:31:01;;;;;;;66.22;27.25;;;6.50;99.90;;;;;;4996307;28;20034;-82
2021/12/31 07:33:32;;;;;;;57.80;26.27;;;6.50;99.90;;;;;;4994208;28;20061;-83
2021/12/31 07:36:10;;;;;;;72.90;26.15;;;6.60;99.90;;;;;;5007946;28;20026;-82
2021/12/31 07:38:40;;;;;;;64.38;26.13;;;6.60;99.90;;;;;;5010058;28;20381;-81
2021/12/31 07:41:06;;;;;;;107.93;29.63;;;6.60;99.90;;;;;;5014513;28;20057;-81
2021/12/31 07:43:33;;;;;;;76.40;27.17;;;6.70;99.90;;;;;;5011575;28;20030;-82
2021/12/31 07:46:07;;;;;;;62.00;25.90;;;6.70;99.90;;;;;;5023123;28;20041;-81
2021/12/31 07:48:36;;;;;;;74.47;26.92;;;6.70;99.90;;;;;;5007209;28;20018;-81
2021/12/31 07:51:03;;;;;;;71.32;25.25;;;6.80;99.90;;;;;;4997195;28;20365;-81
2021/12/31 07:53:31;;;;;;;63.58;26.85;;;6.90;99.90;;;;;;5029109;28;20025;-80
2021/12/31 07:55:59;;;;;;;62.78;25.48;;;7.00;99.90;;;;;;5030485;28;20029;-81
2021/12/31 07:58:25;;;;;;;61.80;26.27;;;7.00;99.90;;;;;;5030911;28;20038;-79
2021/12/31 08:00:51;;;;;;;66.30;26.35;;;7.00;99.90;;;;;;5017238;28;20048;-81
2021/12/31 08:03:20;;;;;;;70.45;26.35;;;7.10;99.90;;;;;;5016454;28;20053;-81
2021/12/31 08:05:45;;;;;;;97.97;28.27;;;7.10;99.90;;;;;;5034888;28;20014;-80
2021/12/31 08:08:12;;;;;;;74.82;29.73;;;7.20;99.90;;;;;;5029399;28;20434;-81
2021/12/31 08:11:05;;;;;;;81.30;30.38;;;7.20;99.90;;;;;;5014534;28;20113;-82
2021/12/31 08:13:31;;;;;;;62.67;28.42;;;7.30;99.90;;;;;;5003496;28;20570;-80
2021/12/31 08:15:56;;;;;;;79.55;29.02;;;7.40;99.90;;;;;;5019177;28;20057;-81
2021/12/31 08:18:22;;;;;;;84.35;30.48;;;7.50;99.90;;;;;;5021253;28;20112;-80
2021/12/31 08:21:16;;;;;;;;;;;;;;;;;;;;;
2021/12/31 08:23:50;;;;;;;72.85;29.75;;;7.40;99.90;;;;;;5014649;28;20030;-80
2021/12/31 08:26:16;;;;;;;90.47;30.92;;;7.40;99.90;;;;;;5027375;28;20072;-81
2021/12/31 08:28:55;;;;;;;91.07;33.95;;;7.30;99.90;;;;;;4994125;28;20022;-81
2021/12/31 08:31:21;;;;;;;230.77;35.40;;;7.30;99.90;;;;;;5012969;28;20496;-80
2021/12/31 08:33:47;;;;;;;83.75;31.30;;;7.30;99.90;;;;;;5013466;28;20025;-80
2021/12/31 08:36:13;;;;;;;98.85;33.65;;;7.30;99.90;;;;;;5016235;28;20026;-81
2021/12/31 08:38:38;;;;;;;62.05;30.25;;;7.40;99.90;;;;;;5013724;28;20026;-82
2021/12/31 08:41:07;;;;;;;76.18;33.55;;;7.50;99.90;;;;;;5021454;28;20092;-81
2021/12/31 08:43:36;;;;;;;60.70;30.48;;;7.70;99.90;;;;;;5033407;28;20490;-80
2021/12/31 08:46:02;;;;;;;75.68;31.55;;;7.90;99.90;;;;;;5004522;28;20451;-82
2021/12/31 08:48:28;;;;;;;85.50;31.00;;;8.10;99.90;;;;;;5028904;28;20025;-81
2021/12/31 08:50:54;;;;;;;103.55;32.00;;;8.30;99.90;;;;;;5032408;28;20039;-81
2021/12/31 08:53:19;;;;;;;60.45;29.73;;;8.40;99.90;;;;;;5054233;28;20029;-81
2021/12/31 08:55:45;;;;;;;63.38;29.00;;;8.40;99.90;;;;;;5025570;28;20033;-81
2021/12/31 08:58:11;;;;;;;61.33;30.58;;;8.40;99.90;;;;;;5040167;28;20026;-81
2021/12/31 09:00:40;;;;;;;63.25;29.98;;;8.50;99.90;;;;;;5038158;28;20099;-81
2021/12/31 09:03:08;;;;;;;70.05;31.75;;;8.50;99.90;;;;;;5015890;28;20631;-81
2021/12/31 09:05:34;;;;;;;68.90;29.15;;;8.60;99.90;;;;;;5025093;28;20235;-81
2021/12/31 09:08:03;;;;;;;89.05;28.38;;;8.60;99.90;;;;;;5033782;28;20026;-81
2021/12/31 09:10:28;;;;;;;65.93;30.40;;;8.70;99.90;;;;;;5030861;28;20014;-81
2021/12/31 09:12:54;;;;;;;60.05;31.48;;;8.60;99.90;;;;;;5045398;28;20026;-81
2021/12/31 09:15:23;;;;;;;76.68;31.85;;;8.70;99.90;;;;;;5035461;28;20049;-81
2021/12/31 09:17:55;;;;;;;75.95;31.98;;;8.80;99.90;;;;;;5051342;28;20518;-81
2021/12/31 09:20:25;;;;;;;59.92;31.88;;;8.90;99.90;;;;;;5010594;28;20041;-80
2021/12/31 09:22:58;;;;;;;72.82;33.90;;;9.00;99.90;;;;;;5043853;28;20452;-80
2021/12/31 09:25:26;;;;;;;;;;;9.20;99.90;;;;;;5039510;28;20059;-80
2021/12/31 09:28:04;;;;;;;74.65;32.40;;;9.30;99.90;;;;;;5033356;28;19928;-80
2021/12/31 09:30:32;;;;;;;62.45;34.20;;;9.40;99.90;;;;;;5015695;28;20395;-80
2021/12/31 09:33:01;;;;;;;59.78;33.70;;;9.40;99.90;;;;;;5033215;28;20064;-81
2021/12/31 09:35:27;;;;;;;76.07;36.10;;;9.40;99.90;;;;;;5016709;28;20044;-80
2021/12/31 09:37:59;;;;;;;75.95;36.65;;;9.40;99.90;;;;;;5035193;28;20029;-80
2021/12/31 09:40:33;;;;;;;68.82;34.63;;;9.40;99.90;;;;;;5030989;28;20033;-81
2021/12/31 09:42:59;;;;;;;70.35;36.90;;;9.40;99.90;;;;;;5027249;28;20437;-80
2021/12/31 09:45:29;;;;;;;86.95;39.97;;;9.40;99.90;;;;;;5032914;28;20037;-81
2021/12/31 09:48:00;;;;;;;84.63;42.00;;;9.40;99.90;;;;;;5033464;28;20025;-81
2021/12/31 09:50:37;;;;;;;81.63;46.40;;;9.50;99.90;;;;;;5034891;28;20496;-80
2021/12/31 09:53:06;;;;;;;79.65;45.22;;;9.60;99.90;;;;;;5031366;28;20338;-81
2021/12/31 09:55:35;;;;;;;77.53;39.45;;;9.70;99.90;;;;;;5034896;28;20030;-80
2021/12/31 09:58:06;;;;;;;80.88;44.90;;;9.60;99.90;;;;;;5036357;28;20022;-81
2021/12/31 10:00:35;;;;;;;78.10;43.90;;;9.60;99.90;;;;;;5021337;28;20045;-81
2021/12/31 10:04:04;;;;;;;82.00;45.78;;;9.70;99.90;;;;;;5041017;28;20033;-81
2021/12/31 10:07:10;;;;;;;87.35;49.25;;;9.90;99.90;;;;;;4998516;28;20068;-81
2021/12/31 10:10:07;;;;;;;91.28;49.05;;;9.90;99.90;;;;;;5036689;28;20033;-80
2021/12/31 10:12:50;;;;;;;97.28;51.92;;;10.00;99.90;;;;;;5031874;28;20048;-80
2021/12/31 10:15:20;;;;;;;115.18;57.08;;;9.70;99.90;;;;;;5032029;28;20030;-81
2021/12/31 10:17:46;;;;;;;103.47;54.78;;;9.50;99.90;;;;;;5040049;28;20083;-81
2021/12/31 10:20:16;;;;;;;103.10;54.42;;;9.40;99.90;;;;;;5036850;28;20029;-81
2021/12/31 10:22:46;;;;;;;98.65;54.67;;;9.30;99.90;;;;;;5038668;28;20037;-81
2021/12/31 10:25:24;;;;;;;99.47;51.40;;;9.20;99.90;;;;;;5038848;28;20056;-81
2021/12/31 10:27:52;;;;;;;92.90;50.72;;;9.20;99.90;;;;;;5026272;28;20490;-82
2021/12/31 10:30:27;;;;;;;102.25;52.33;;;9.10;99.90;;;;;;5034221;28;20024;-81
2021/12/31 10:32:56;;;;;;;97.57;48.92;;;9.10;99.90;;;;;;5033523;28;20475;-80
2021/12/31 10:35:54;;;;;;;94.97;49.30;;;9.10;99.90;;;;;;5032688;28;20040;-81
2021/12/31 10:38:39;;;;;;;102.32;53.53;;;9.00;99.90;;;;;;5035162;28;20120;-81
2021/12/31 10:41:06;;;;;;;102.25;54.40;;;8.90;99.90;;;;;;5031375;28;20049;-81
2021/12/31 10:43:40;;;;;;;94.03;47.15;;;8.80;99.90;;;;;;5031187;28;20112;-81
2021/12/31 10:46:24;;;;;;;85.03;47.17;;;8.80;99.90;;;;;;5041534;28;20071;-81
2021/12/31 10:49:30;;;;;;;88.40;50.10;;;9.00;99.90;;;;;;5021766;28;20029;-81
2021/12/31 10:52:04;;;;;;;99.43;59.53;;;8.90;99.90;;;;;;5036323;28;20116;-81
2021/12/31 10:54:46;;;;;;;82.82;53.50;;;8.80;99.90;;;;;;5027769;28;20032;-82
2021/12/31 10:57:51;;;;;;;82.78;47.78;;;8.80;99.90;;;;;;5047288;28;20597;-81
2021/12/31 11:00:32;;;;;;;83.90;48.10;;;8.60;99.90;;;;;;5029373;28;20060;-81
2021/12/31 11:06:14;;;;;;;86.93;49.22;;;8.40;99.90;;;;;;5007768;28;20121;-81
2021/12/31 11:09:07;;;;;;;89.47;50.63;;;8.30;99.90;;;;;;5030502;28;20041;-83
2021/12/31 11:11:37;;;;;;;76.20;47.40;;;8.30;99.90;;;;;;5027838;28;20136;-81
2021/12/31 11:14:05;;;;;;;72.75;46.05;;;8.30;99.90;;;;;;5031657;28;20551;-81
2021/12/31 11:16:40;;;;;;;71.50;44.72;;;8.30;99.90;;;;;;5019454;28;20029;-81
2021/12/31 11:19:19;;;;;;;76.18;46.63;;;8.40;99.90;;;;;;5046263;28;20427;-81
2021/12/31 11:22:11;;;;;;;60.85;40.35;;;8.40;99.90;;;;;;5045171;28;20038;-81
2021/12/31 11:25:19;;;;;;;73.53;43.35;;;8.40;99.90;;;;;;5037977;28;20098;-81
2021/12/31 11:28:22;;;;;;;72.38;46.22;;;8.40;99.90;;;;;;5044415;28;20041;-81
2021/12/31 11:30:49;;;;;;;75.38;45.90;;;8.50;99.90;;;;;;5036912;28;20415;-82
2021/12/31 11:33:26;;;;;;;62.63;41.88;;;8.60;99.90;;;;;;5041436;28;20021;-81
2021/12/31 11:36:14;;;;;;;82.75;49.45;;;8.70;99.90;;;;;;5038363;28;20052;-81
2021/12/31 11:38:44;;;;;;;80.60;50.78;;;8.80;99.90;;;;;;5032937;28;20023;-81
2021/12/31 11:41:34;;;;;;;83.25;47.00;;;8.70;99.90;;;;;;5038665;28;20135;-81
2021/12/31 11:44:10;;;;;;;73.78;45.80;;;8.60;99.90;;;;;;5001866;28;20026;-80
2021/12/31 11:47:03;;;;;;;66.97;44.88;;;8.70;99.90;;;;;;5017362;28;20418;-79
2021/12/31 11:49:29;;;;;;;85.22;49.85;;;8.70;99.90;;;;;;4997968;28;20042;-79
2021/12/31 11:52:13;;;;;;;83.03;49.67;;;8.90;99.90;;;;;;5014449;28;20033;-82
2021/12/31 11:54:45;;;;;;;78.38;46.40;;;9.20;99.90;;;;;;5003345;28;20029;-82
2021/12/31 12:01:38;;;;;;;79.22;49.83;;;9.90;99.90;;;;;;4954186;28;20150;-82
2021/12/31 12:04:56;;;;;;;81.10;49.30;;;10.20;99.90;;;;;;4954708;28;20556;-80
2021/12/31 12:07:42;;;;;;;82.43;49.20;;;10.10;99.90;;;;;;4942503;28;20037;-81
2021/12/31 12:10:11;;;;;;;67.53;43.88;;;10.10;99.90;;;;;;5009844;28;20038;-76
2021/12/31 12:12:43;;;;;;;72.80;45.00;;;10.00;99.90;;;;;;5022311;28;20484;-76
2021/12/31 12:15:15;;;;;;;66.28;44.35;;;10.00;99.90;;;;;;5020292;28;20036;-77
2021/12/31 12:17:47;;;;;;;76.28;48.67;;;10.10;99.90;;;;;;5024697;28;20026;-77
2021/12/31 12:20:23;;;;;;;88.32;49.78;;;10.10;99.90;;;;;;5012443;28;20396;-81
2021/12/31 12:22:56;;;;;;;84.50;50.15;;;10.10;99.90;;;;;;5019221;28;20451;-81
2021/12/31 12:25:23;;;;;;;80.70;51.00;;;10.30;99.90;;;;;;5010637;28;20388;-81
2021/12/31 12:28:07;;;;;;;84.57;49.30;;;10.30;99.90;;;;;;4993165;28;20079;-82
2021/12/31 12:30:48;;;;;;;93.80;53.63;;;10.10;99.90;;;;;;5010698;28;20026;-81
2021/12/31 12:33:24;;;;;;;87.57;49.95;;;10.00;99.90;;;;;;5010132;28;20029;-81
2021/12/31 12:36:03;;;;;;;97.00;52.53;;;10.10;99.90;;;;;;5014396;28;20041;-87
2021/12/31 12:38:35;;;;;;;88.63;51.75;;;10.30;99.90;;;;;;5028454;28;20022;-89
2021/12/31 12:41:12;;;;;;;89.03;53.83;;;10.30;99.90;;;;;;5006605;28;20132;-89
2021/12/31 12:43:48;;;;;;;95.72;53.65;;;10.40;99.90;;;;;;5032818;28;20539;-88
2021/12/31 12:46:18;;;;;;;94.75;53.20;;;10.40;99.90;;;;;;5012838;28;20034;-88
2021/12/31 12:48:54;;;;;;;92.25;54.22;;;10.40;99.90;;;;;;5014939;28;20034;-90
2021/12/31 12:51:32;;;;;;;96.72;58.35;;;10.40;99.90;;;;;;5008252;28;20395;-89
2021/12/31 12:54:13;;;;;;;93.03;56.08;;;10.10;99.90;;;;;;5014141;28;20120;-89
2021/12/31 12:57:01;;;;;;;91.05;53.30;;;9.90;99.90;;;;;;5018433;28;20074;-90
2021/12/31 13:00:03;;;;;;;86.97;53.60;;;9.90;99.90;;;;;;5001211;28;20041;-90
2021/12/31 13:02:46;;;;;;;89.65;54.15;;;10.10;99.90;;;;;;5020670;28;20061;-89
2021/12/31 13:05:14;;;;;;;;;;;10.20;99.90;;;;;;5017996;28;20022;-90
2021/12/31 13:07:52;;;;;;;86.50;52.20;;;10.40;99.90;;;;;;5016630;28;19904;-89
2021/12/31 13:10:36;;;;;;;87.82;52.42;;;10.60;99.90;;;;;;5045912;28;20025;-89
2021/12/31 13:13:02;;;;;;;80.00;53.13;;;10.70;99.90;;;;;;5031655;28;20124;-89
2021/12/31 13:15:33;;;;;;;97.07;56.70;;;10.70;99.90;;;;;;5022565;28;20032;-90
2021/12/31 13:18:25;;;;;;;101.15;56.95;;;10.80;99.90;;;;;;5032894;28;20558;-90
2021/12/31 13:21:07;;;;;;;86.63;56.20;;;10.80;99.90;;;;;;5017870;28;20030;-85
2021/12/31 13:23:42;;;;;;;103.38;57.30;;;10.90;99.90;;;;;;5041994;28;20025;-87
2021/12/31 13:26:43;;;;;;;105.72;60.67;;;10.20;99.90;;;;;;5029564;28;20122;-86
2021/12/31 13:29:35;;;;;;;111.03;60.63;;;9.80;99.90;;;;;;5002291;28;20105;-86
2021/12/31 13:32:20;;;;;;;114.40;65.60;;;9.50;99.90;;;;;;5023051;28;20037;-85
2021/12/31 13:34:54;;;;;;;98.85;61.25;;;9.30;99.90;;;;;;5027981;28;20388;-87
2021/12/31 13:37:24;;;;;;;99.15;60.80;;;9.30;99.90;;;;;;5033826;28;20022;-87
2021/12/31 13:40:02;;;;;;;111.82;64.95;;;9.20;99.90;;;;;;5037063;28;20022;-87
2021/12/31 13:42:34;;;;;;;111.60;63.85;;;9.10;99.90;;;;;;5038986;28;20081;-88
2021/12/31 13:45:00;;;;;;;114.63;66.78;;;9.10;99.90;;;;;;5028539;28;20083;-88
2021/12/31 13:47:29;;;;;;;116.70;69.85;;;8.90;99.90;;;;;;5047092;28;20025;-87
2021/12/31 13:50:21;;;;;;;117.32;66.45;;;8.90;99.90;;;;;;5039206;28;20060;-87
2021/12/31 13:52:59;;;;;;;126.03;67.28;;;8.80;99.90;;;;;;5029742;28;20045;-88
2021/12/31 13:55:35;;;;;;;115.82;68.78;;;8.70;99.90;;;;;;5043292;28;20036;-87
2021/12/31 13:58:28;;;;;;;162.55;70.05;;;8.70;99.90;;;;;;5035199;28;20017;-88
2021/12/31 14:01:13;;;;;;;120.50;68.90;;;8.60;99.90;;;;;;5004971;28;20053;-87
2021/12/31 14:03:39;;;;;;;148.05;74.43;;;8.50;99.90;;;;;;5034067;28;20106;-89
2021/12/31 14:06:15;;;;;;;145.85;76.60;;;8.30;99.90;;;;;;5043176;28;20560;-85
2021/12/31 14:08:45;;;;;;;142.38;75.82;;;8.20;99.90;;;;;;5050870;28;20021;-86
2021/12/31 14:11:14;;;;;;;134.52;71.10;;;8.20;99.90;;;;;;5047350;28;20029;-87
2021/12/31 14:13:43;;;;;;;145.98;72.53;;;8.20;99.90;;;;;;5052126;28;20021;-86
2021/12/31 14:16:11;;;;;;;125.82;69.25;;;8.20;99.90;;;;;;5046668;28;20063;-87
2021/12/31 14:18:37;;;;;;;137.23;68.35;;;8.30;99.90;;;;;;5032888;28;20124;-88
2021/12/31 14:21:06;;;;;;;159.15;77.63;;;8.20;99.90;;;;;;5039651;28;20167;-89
2021/12/31 14:23:33;;;;;;;160.02;73.70;;;8.10;99.90;;;;;;5035428;28;20112;-90
2021/12/31 14:25:58;;;;;;;152.00;71.18;;;8.00;99.90;;;;;;5023439;28;20033;-89
2021/12/31 14:28:40;;;;;;;155.25;76.20;;;8.00;99.90;;;;;;5052965;28;20033;-87
2021/12/31 14:31:23;;;;;;;174.75;78.28;;;7.90;99.90;;;;;;5033852;28;20055;-87
2021/12/31 14:33:56;;;;;;;174.05;74.93;;;7.90;99.90;;;;;;5031719;28;20145;-87
2021/12/31 14:36:24;;;;;;;166.15;71.25;;;7.90;99.90;;;;;;5023763;28;20029;-87
2021/12/31 14:39:19;;;;;;;144.38;73.00;;;8.00;99.90;;;;;;5032059;28;20024;-87
2021/12/31 14:42:14;;;;;;;189.40;80.03;;;8.00;99.90;;;;;;5017760;28;20050;-87
2021/12/31 14:44:39;;;;;;;180.25;76.13;;;8.00;99.90;;;;;;5011169;28;20045;-87
2021/12/31 14:47:23;;;;;;;160.95;74.07;;;7.90;99.90;;;;;;5035027;28;20032;-87
2021/12/31 14:49:49;;;;;;;155.68;73.40;;;8.00;99.90;;;;;;5026268;28;20025;-88
2021/12/31 14:52:16;;;;;;;168.85;75.45;;;8.10;99.90;;;;;;5018871;28;20550;-81
2021/12/31 14:54:42;;;;;;;236.23;74.05;;;8.10;99.90;;;;;;5027776;28;20029;-83
2021/12/31 14:57:10;;;;;;;212.45;76.07;;;8.10;99.90;;;;;;5032301;28;20025;-80
2021/12/31 14:59:37;;;;;;;238.77;76.45;;;7.90;99.90;;;;;;5036478;28;20029;-80
2021/12/31 15:02:24;;;;;;;222.38;80.15;;;7.80;99.90;;;;;;5044723;28;20064;-80
2021/12/31 15:04:56;;;;;;;300.83;72.25;;;7.80;99.90;;;;;;5048653;28;20025;-81
2021/12/31 15:07:30;;;;;;;433.25;76.75;;;7.80;99.90;;;;;;5047674;28;20036;-79
2021/12/31 15:09:57;;;;;;;295.73;78.95;;;7.70;99.90;;;;;;5045996;28;20061;-79
2021/12/31 15:12:26;;;;;;;313.27;78.00;;;7.60;99.90;;;;;;5038877;28;20108;-79
2021/12/31 15:14:58;;;;;;;395.92;82.72;;;7.50;99.90;;;;;;5038635;28;20108;-78
2021/12/31 15:17:25;;;;;;;285.90;76.35;;;7.40;99.90;;;;;;5057744;28;20064;-79
2021/12/31 15:19:58;;;;;;;552.55;87.45;;;7.40;99.90;;;;;;5060282;28;20029;-79
2021/12/31 15:22:29;;;;;;;334.35;78.53;;;7.40;99.90;;;;;;5041595;28;20037;-79
2021/12/31 15:25:04;;;;;;;435.70;75.97;;;7.40;99.90;;;;;;5042121;28;20124;-78
2021/12/31 15:27:32;;;;;;;267.70;76.47;;;7.40;99.90;;;;;;5064907;28;20025;-79
2021/12/31 15:30:07;;;;;;;269.83;76.95;;;7.40;99.90;;;;;;5054418;28;20555;-79
2021/12/31 15:32:36;;;;;;;172.07;74.57;;;7.40;99.90;;;;;;5029680;28;20032;-79
2021/12/31 15:35:02;;;;;;;169.40;65.63;;;7.60;99.90;;;;;;5046135;28;20388;-79
2021/12/31 15:37:28;;;;;;;173.77;62.08;;;7.60;99.90;;;;;;5036959;28;20056;-79
2021/12/31 15:39:54;;;;;;;179.73;65.45;;;7.70;99.90;;;;;;5035887;28;20029;-79
2021/12/31 15:42:20;;;;;;;260.42;132.27;;;7.80;99.90;;;;;;5043323;28;20045;-79
2021/12/31 15:44:48;;;;;;;282.90;154.25;;;7.90;99.90;;;;;;5044026;28;20108;-79
2021/12/31 15:47:16;;;;;;;526.28;285.27;;;8.00;99.90;;;;;;5038512;28;20453;-78
2021/12/31 15:49:50;;;;;;;203.27;96.43;;;8.10;99.90;;;;;;5033424;28;20029;-78
2021/12/31 15:52:24;;;;;;;208.77;77.57;;;8.10;99.90;;;;;;5038294;28;20052;-77
2021/12/31 15:54:50;;;;;;;214.93;90.43;;;8.20;99.90;;;;;;5033629;28;20029;-78
2021/12/31 15:57:20;;;;;;;226.63;72.70;;;8.10;99.90;;;;;;5020366;28;20029;-79
2021/12/31 15:59:55;;;;;;;188.38;77.03;;;8.10;99.90;;;;;;5032681;28;20029;-79
2021/12/31 16:02:21;;;;;;;146.55;73.18;;;8.00;99.90;;;;;;5037285;28;20076;-79
2021/12/31 16:04:47;;;;;;;159.95;71.35;;;8.10;99.90;;;;;;5033962;28;20053;-79
2021/12/31 16:07:13;;;;;;;176.57;72.57;;;8.10;99.90;;;;;;5038186;28;20080;-79
2021/12/31 16:09:52;;;;;;;;;;;;;;;;;;;;;
2021/12/31 16:12:18;;;;;;;166.02;75.57;;;8.10;99.90;;;;;;5044110;28;20047;-79
2021/12/31 16:14:44;;;;;;;167.02;73.35;;;8.10;99.90;;;;;;5043584;28;20542;-78
2021/12/31 16:17:16;;;;;;;162.95;69.90;;;8.20;99.90;;;;;;5038749;28;20025;-80
2021/12/31 16:19:53;;;;;;;;;;;8.20;99.90;;;;;;5036369;28;20060;-80
2021/12/31 16:22:18;;;;;;;374.30;77.70;;;8.20;99.90;;;;;;5044072;28;19913;-81
2021/12/31 16:24:44;;;;;;;317.55;83.68;;;8.10;99.90;;;;;;5044163;28;20379;-82
2021/12/31 16:27:13;;;;;;;353.65;88.15;;;7.90;99.90;;;;;;5050496;28;20025;-81
2021/12/31 16:29:56;;;;;;;208.50;80.25;;;7.80;99.90;;;;;;5042877;28;20108;-81
2021/12/31 16:32:27;;;;;;;366.58;86.32;;;7.70;99.90;;;;;;5038110;28;20056;-82
2021/12/31 16:35:15;;;;;;;352.38;88.43;;;7.60;99.90;;;;;;5038513;28;20052;-81
2021/12/31 16:37:41;;;;;;;526.78;93.32;;;7.50;99.90;;;;;;5038374;28;20024;-78
2021/12/31 16:40:16;;;;;;;660.85;98.38;;;7.50;99.90;;;;;;5039874;28;20025;-77
2021/12/31 16:42:43;;;;;;;536.78;95.72;;;7.30;99.90;;;;;;5018127;28;20037;-77
2021/12/31 16:45:26;;;;;;;520.45;93.35;;;7.20;99.90;;;;;;5020413;28;20164;-78
2021/12/31 16:47:55;;;;;;;353.85;85.85;;;7.10;99.90;;;;;;4995928;28;20030;-78
2021/12/31 16:50:37;;;;;;;474.10;88.30;;;7.20;99.90;;;;;;5014419;28;20038;-78
2021/12/31 16:53:04;;;;;;;417.08;83.32;;;7.30;99.90;;;;;;5034166;28;20038;-78
2021/12/31 16:55:30;;;;;;;595.38;82.47;;;7.40;99.90;;;;;;5029757;28;20044;-79
2021/12/31 16:58:12;;;;;;;279.55;80.40;;;7.40;99.90;;;;;;5015985;28;20029;-79
2021/12/31 17:00:41;;;;;;;418.17;79.80;;;7.30;99.90;;;;;;5011382;28;20077;-79
2021/12/31 17:03:38;;;;;;;383.75;85.05;;;7.40;99.90;;;;;;5013946;28;20033;-78
2021/12/31 17:06:02;;;;;;;190.00;76.65;;;7.40;99.90;;;;;;5014883;28;20041;-80
2021/12/31 17:08:27;;;;;;;249.70;79.47;;;7.60;99.90;;;;;;5010523;28;20112;-78
2021/12/31 17:10:54;;;;;;;233.93;77.97;;;7.70;99.90;;;;;;5022051;28;20080;-77
2021/12/31 17:13:22;;;;;;;178.20;70.13;;;7.60;99.90;;;;;;5017726;28;20084;-77
2021/12/31 17:15:54;;;;;;;170.35;64.57;;;7.70;99.90;;;;;;5029203;28;20037;-77
2021/12/31 17:18:23;;;;;;;157.50;67.72;;;7.70;99.90;;;;;;5028118;28;20034;-79
2021/12/31 17:20:49;;;;;;;152.73;64.97;;;7.90;99.90;;;;;;5016052;28;20073;-79
2021/12/31 17:23:15;;;;;;;156.93;64.10;;;7.90;99.90;;;;;;5013721;28;20069;-79
2021/12/31 17:25:43;;;;;;;141.75;66.35;;;8.00;99.90;;;;;;5013703;28;20076;-79
2021/12/31 17:28:09;;;;;;;164.13;71.20;;;8.00;99.90;;;;;;5004335;28;20018;-80
2021/12/31 17:30:35;;;;;;;158.68;64.43;;;8.00;99.90;;;;;;5013925;28;20366;-79
2021/12/31 17:33:01;;;;;;;147.75;65.68;;;8.00;99.90;;;;;;5012104;28;20092;-79
2021/12/31 17:35:32;;;;;;;148.43;65.72;;;8.10;99.90;;;;;;5008785;28;20112;-80
2021/12/31 17:37:59;;;;;;;170.63;66.65;;;8.10;99.90;;;;;;5013616;28;20438;-79
2021/12/31 17:40:25;;;;;;;142.00;67.25;;;8.10;99.90;;;;;;5020270;28;20037;-79
2021/12/31 17:42:51;;;;;;;209.73;65.18;;;8.20;99.90;;;;;;5033719;28;20025;-79
2021/12/31 17:45:23;;;;;;;190.77;65.75;;;8.10;99.90;;;;;;5029631;28;20158;-78
2021/12/31 17:47:58;;;;;;;156.82;65.72;;;8.00;99.90;;;;;;5026321;28;20523;-78